createdAt,value
2023-04-12T00:00:55.607Z,10.90
2023-04-12T00:03:22.563Z,10.90
2023-04-12T00:05:54.599Z,10.80
2023-04-12T00:08:26.532Z,10.70
2023-04-12T00:10:53.294Z,10.60
2023-04-12T00:13:20.361Z,10.60
2023-04-12T00:15:47.029Z,10.60
2023-04-12T00:18:13.736Z,10.60
2023-04-12T00:20:40.450Z,10.50
2023-04-12T00:23:07.187Z,10.50
2023-04-12T00:25:33.899Z,10.40
2023-04-12T00:28:00.658Z,10.40
2023-04-12T00:30:28.120Z,10.30
2023-04-12T00:32:54.772Z,10.30
2023-04-12T00:35:21.466Z,10.20
2023-04-12T00:37:48.056Z,10.30
2023-04-12T00:40:14.725Z,10.30
2023-04-12T00:42:41.546Z,10.10
2023-04-12T00:45:09.266Z,10.20
2023-04-12T00:47:37.190Z,10.10
2023-04-12T00:50:08.326Z,10.20
2023-04-12T00:52:35.766Z,10.20
2023-04-12T00:55:07.142Z,10.20
2023-04-12T00:57:37.077Z,10.20
2023-04-12T01:00:13.213Z,10.10
2023-04-12T01:02:50.577Z,10.00
2023-04-12T01:05:24.032Z,10.00
2023-04-12T01:08:14.928Z,9.90
2023-04-12T01:10:44.041Z,9.90
2023-04-12T01:13:32.392Z,9.90
2023-04-12T01:16:06.024Z,9.90
2023-04-12T01:18:40.604Z,9.90
2023-04-12T01:21:13.661Z,10.00
2023-04-12T01:23:48.272Z,10.00
2023-04-12T01:26:41.511Z,10.00
2023-04-12T01:29:11.225Z,10.00
2023-04-12T01:31:40.991Z,9.90
2023-04-12T01:34:11.455Z,9.80
2023-04-12T01:36:39.703Z,9.90
2023-04-12T01:39:07.382Z,10.00
2023-04-12T01:41:37.534Z,10.00
2023-04-12T01:44:04.292Z,10.00
2023-04-12T01:46:32.375Z,10.00
2023-04-12T01:48:59.061Z,10.00
2023-04-12T01:51:26.049Z,10.00
2023-04-12T01:54:11.542Z,9.90
2023-04-12T01:56:43.142Z,10.00
2023-04-12T01:59:13.340Z,10.00
2023-04-12T02:01:40.320Z,9.90
2023-04-12T02:04:08.231Z,9.90
2023-04-12T02:06:36.425Z,9.90
2023-04-12T02:09:05.901Z,9.90
2023-04-12T02:11:32.656Z,9.90
2023-04-12T02:13:59.653Z,9.90
2023-04-12T02:16:29.317Z,9.90
2023-04-12T02:18:59.457Z,9.80
2023-04-12T02:21:27.741Z,9.80
2023-04-12T02:23:54.721Z,9.80
2023-04-12T02:26:23.414Z,9.80
2023-04-12T02:28:50.293Z,9.80
2023-04-12T02:31:17.076Z,9.80
2023-04-12T02:33:44.082Z,9.80
2023-04-12T02:36:11.582Z,9.90
2023-04-12T02:38:38.397Z,9.70
2023-04-12T02:41:05.598Z,9.70
2023-04-12T02:43:33.208Z,9.70
2023-04-12T02:46:00.291Z,9.70
2023-04-12T02:48:26.929Z,9.60
2023-04-12T02:50:53.586Z,9.70
2023-04-12T02:53:21.673Z,9.80
2023-04-12T02:55:48.336Z,9.80
2023-04-12T02:58:14.940Z,9.80
2023-04-12T03:00:43.661Z,9.80
2023-04-12T03:03:10.432Z,9.60
2023-04-12T03:05:38.070Z,9.60
2023-04-12T03:08:04.938Z,9.60
2023-04-12T03:10:31.619Z,9.70
2023-04-12T03:12:58.234Z,9.70
2023-04-12T03:15:24.844Z,9.60
2023-04-12T03:17:51.623Z,9.60
2023-04-12T03:20:18.899Z,9.70
2023-04-12T03:22:45.573Z,9.70
2023-04-12T03:25:12.806Z,9.60
2023-04-12T03:27:39.508Z,9.60
2023-04-12T03:30:07.154Z,9.60
2023-04-12T03:32:33.799Z,9.60
2023-04-12T03:35:00.704Z,9.60
2023-04-12T03:37:27.411Z,9.60
2023-04-12T03:39:54.135Z,9.70
2023-04-12T03:42:32.324Z,9.70
2023-04-12T03:45:01.133Z,9.70
2023-04-12T03:47:27.882Z,9.70
2023-04-12T03:50:10.148Z,9.60
2023-04-12T03:52:38.233Z,9.60
2023-04-12T03:55:07.380Z,9.60
2023-04-12T03:57:34.834Z,9.50
2023-04-12T04:00:02.384Z,9.60
2023-04-12T04:02:29.144Z,9.60
2023-04-12T04:04:56.217Z,9.60
2023-04-12T04:07:23.051Z,9.60
2023-04-12T04:09:50.244Z,9.60
2023-04-12T04:12:17.039Z,9.60
2023-04-12T04:14:44.089Z,9.60
2023-04-12T04:17:11.000Z,9.60
2023-04-12T04:19:38.048Z,9.70
2023-04-12T04:22:04.805Z,9.60
2023-04-12T04:24:31.544Z,9.60
2023-04-12T04:26:58.741Z,9.60
2023-04-12T04:29:25.935Z,9.70
2023-04-12T04:31:53.836Z,9.70
2023-04-12T04:34:22.039Z,9.50
2023-04-12T04:36:48.727Z,9.50
2023-04-12T04:39:15.845Z,9.60
2023-04-12T04:41:42.682Z,9.60
2023-04-12T04:44:09.501Z,9.60
2023-04-12T04:46:39.617Z,9.60
2023-04-12T04:49:06.643Z,9.60
2023-04-12T04:51:33.449Z,9.50
2023-04-12T04:54:00.910Z,9.60
2023-04-12T04:56:27.852Z,9.60
2023-04-12T04:58:56.831Z,9.60
2023-04-12T05:01:28.420Z,9.60
2023-04-12T05:03:55.804Z,9.60
2023-04-12T05:06:23.058Z,9.70
2023-04-12T05:08:49.739Z,9.60
2023-04-12T05:11:16.450Z,9.70
2023-04-12T05:13:43.149Z,9.70
2023-04-12T05:16:11.418Z,9.80
2023-04-12T05:18:38.554Z,9.80
2023-04-12T05:21:05.865Z,9.80
2023-04-12T05:23:36.774Z,9.80
2023-04-12T05:26:04.052Z,9.80
2023-04-12T05:28:30.876Z,9.80
2023-04-12T05:30:57.567Z,9.90
2023-04-12T05:33:24.330Z,9.80
2023-04-12T05:35:51.041Z,9.60
2023-04-12T05:38:17.722Z,9.50
2023-04-12T05:40:44.378Z,9.60
2023-04-12T05:43:14.529Z,9.70
2023-04-12T05:45:41.882Z,9.80
2023-04-12T05:48:09.182Z,9.90
2023-04-12T05:50:36.219Z,9.80
2023-04-12T05:53:03.200Z,9.80
2023-04-12T05:55:30.180Z,9.80
2023-04-12T05:57:58.469Z,9.80
2023-04-12T06:00:26.226Z,10.00
2023-04-12T06:02:53.233Z,10.10
2023-04-12T06:05:20.122Z,10.00
2023-04-12T06:07:48.101Z,10.10
2023-04-12T06:10:19.173Z,10.10
2023-04-12T06:12:45.882Z,10.20
2023-04-12T06:15:12.540Z,10.20
2023-04-12T06:17:39.244Z,10.30
2023-04-12T06:20:10.143Z,10.30
2023-04-12T06:22:37.483Z,10.40
2023-04-12T06:25:04.592Z,10.40
2023-04-12T06:27:31.406Z,10.40
2023-04-12T06:29:58.595Z,10.30
2023-04-12T06:32:25.837Z,10.40
2023-04-12T06:34:53.023Z,10.40
2023-04-12T06:37:19.605Z,10.50
2023-04-12T06:39:46.239Z,10.50
2023-04-12T06:42:14.829Z,10.60
2023-04-12T06:44:41.778Z,10.50
2023-04-12T06:47:09.386Z,10.70
2023-04-12T06:49:36.353Z,10.80
2023-04-12T06:52:02.982Z,10.80
2023-04-12T06:54:29.925Z,10.90
2023-04-12T06:56:57.536Z,10.90
2023-04-12T06:59:24.339Z,11.00
2023-04-12T07:01:51.016Z,11.10
2023-04-12T07:04:17.921Z,11.20
2023-04-12T07:06:44.788Z,11.30
2023-04-12T07:09:11.626Z,11.30
2023-04-12T07:11:38.453Z,11.30
2023-04-12T07:14:05.094Z,11.30
2023-04-12T07:16:32.543Z,11.40
2023-04-12T07:19:00.248Z,11.50
2023-04-12T07:21:27.660Z,11.50
2023-04-12T07:23:55.086Z,11.60
2023-04-12T07:26:22.156Z,11.50
2023-04-12T07:28:48.738Z,11.50
2023-04-12T07:31:15.777Z,11.50
2023-04-12T07:33:43.427Z,11.50
2023-04-12T07:36:11.804Z,11.50
2023-04-12T07:38:38.596Z,11.50
2023-04-12T07:41:05.493Z,11.60
2023-04-12T07:43:32.200Z,11.70
2023-04-12T07:45:59.450Z,11.80
2023-04-12T07:48:26.325Z,11.90
2023-04-12T07:50:53.021Z,12.00
2023-04-12T07:53:24.670Z,12.10
2023-04-12T07:55:51.580Z,12.20
2023-04-12T07:58:19.329Z,12.30
2023-04-12T08:00:46.642Z,12.40
2023-04-12T08:03:15.002Z,12.50
2023-04-12T08:05:42.061Z,12.60
2023-04-12T08:08:11.801Z,12.50
2023-04-12T08:10:39.577Z,12.40
2023-04-12T08:13:06.908Z,12.50
2023-04-12T08:15:33.840Z,12.60
2023-04-12T08:18:02.674Z,12.70
2023-04-12T08:20:29.694Z,12.80
2023-04-12T08:22:56.380Z,12.60
2023-04-12T08:25:23.213Z,12.50
2023-04-12T08:27:51.424Z,12.60
2023-04-12T08:30:18.772Z,12.80
2023-04-12T08:32:45.649Z,12.90
2023-04-12T08:35:12.583Z,13.10
2023-04-12T08:37:39.298Z,13.10
2023-04-12T08:40:08.088Z,13.20
2023-04-12T08:42:39.082Z,13.40
2023-04-12T08:45:10.385Z,13.40
2023-04-12T08:47:44.588Z,13.60
2023-04-12T08:50:17.254Z,13.50
2023-04-12T08:52:44.051Z,13.60
2023-04-12T08:55:12.787Z,13.60
2023-04-12T08:57:41.584Z,13.70
2023-04-12T09:00:09.882Z,13.90
2023-04-12T09:02:38.383Z,13.90
2023-04-12T09:05:06.725Z,13.90
2023-04-12T09:07:34.122Z,14.00
2023-04-12T09:10:01.004Z,14.20
2023-04-12T09:12:27.844Z,14.30
2023-04-12T09:15:08.464Z,14.20
2023-04-12T09:17:36.899Z,14.10
2023-04-12T09:20:07.320Z,14.00
2023-04-12T09:22:40.119Z,14.10
2023-04-12T09:25:07.457Z,14.10
2023-04-12T09:27:49.684Z,14.20
2023-04-12T09:30:17.933Z,14.30
2023-04-12T09:32:45.164Z,14.40
2023-04-12T09:35:12.144Z,14.50
2023-04-12T09:37:39.064Z,14.60
2023-04-12T09:40:10.310Z,14.70
2023-04-12T09:42:56.625Z,14.80
2023-04-12T09:45:26.238Z,14.70
2023-04-12T09:47:54.823Z,14.60
2023-04-12T09:50:24.021Z,14.70
2023-04-12T09:52:52.226Z,14.50
2023-04-12T09:55:25.121Z,14.30
2023-04-12T09:57:53.836Z,14.40
2023-04-12T10:00:23.467Z,14.70
2023-04-12T10:02:52.544Z,14.80
2023-04-12T10:05:23.083Z,14.60
2023-04-12T10:07:50.901Z,14.50
2023-04-12T10:10:19.053Z,14.60
2023-04-12T10:12:47.904Z,14.90
2023-04-12T10:15:18.804Z,15.10
2023-04-12T10:17:51.469Z,15.30
2023-04-12T10:20:19.712Z,15.50
2023-04-12T10:22:48.769Z,15.40
2023-04-12T10:25:18.649Z,15.40
2023-04-12T10:27:46.927Z,15.40
2023-04-12T10:30:27.138Z,15.40
2023-04-12T10:33:02.808Z,15.20
2023-04-12T10:35:30.512Z,15.10
2023-04-12T10:38:04.481Z,14.80
2023-04-12T10:40:33.045Z,14.60
2023-04-12T10:43:26.684Z,14.40
2023-04-12T10:45:53.454Z,14.70
2023-04-12T10:48:29.366Z,14.90
2023-04-12T10:51:12.151Z,15.00
2023-04-12T10:53:38.794Z,15.00
2023-04-12T10:56:34.449Z,14.80
2023-04-12T10:59:02.708Z,14.40
2023-04-12T11:01:31.562Z,14.30
2023-04-12T11:04:07.511Z,14.20
2023-04-12T11:07:03.327Z,14.00
2023-04-12T11:09:45.466Z,13.90
2023-04-12T11:12:16.064Z,13.90
2023-04-12T11:14:46.932Z,13.80
2023-04-12T11:17:14.051Z,13.80
2023-04-12T11:19:55.814Z,13.90
2023-04-12T11:22:25.402Z,14.00
2023-04-12T11:24:54.533Z,14.30
2023-04-12T11:27:22.470Z,14.80
2023-04-12T11:29:52.430Z,15.20
2023-04-12T11:32:19.382Z,15.50
2023-04-12T11:34:49.233Z,15.60
2023-04-12T11:37:18.904Z,15.60
2023-04-12T11:39:46.617Z,15.60
2023-04-12T11:42:15.790Z,15.70
2023-04-12T11:44:56.320Z,15.70
2023-04-12T11:47:25.344Z,15.50
2023-04-12T11:49:56.911Z,15.40
2023-04-12T11:52:31.931Z,15.50
2023-04-12T11:55:06.542Z,15.60
2023-04-12T11:57:34.027Z,15.40
2023-04-12T12:00:01.404Z,15.40
2023-04-12T12:02:32.953Z,15.40
2023-04-12T12:05:03.651Z,15.50
2023-04-12T12:07:30.965Z,15.70
2023-04-12T12:09:58.206Z,15.40
2023-04-12T12:12:27.171Z,15.20
2023-04-12T12:14:53.894Z,15.00
2023-04-12T12:17:20.591Z,14.70
2023-04-12T12:19:47.324Z,14.60
2023-04-12T12:22:19.443Z,14.60
2023-04-12T12:24:50.139Z,14.60
2023-04-12T12:27:24.828Z,14.60
2023-04-12T12:29:53.658Z,14.70
2023-04-12T12:32:23.381Z,14.70
2023-04-12T12:34:54.834Z,14.50
2023-04-12T12:37:24.747Z,14.50
2023-04-12T12:40:16.821Z,14.50
2023-04-12T12:42:55.058Z,14.60
2023-04-12T12:45:28.006Z,14.60
2023-04-12T12:48:03.547Z,14.80
2023-04-12T12:50:33.073Z,14.80
2023-04-12T12:53:00.948Z,14.70
2023-04-12T12:55:29.040Z,14.40
2023-04-12T12:58:07.581Z,14.30
2023-04-12T13:00:35.544Z,14.30
2023-04-12T13:03:03.089Z,14.20
2023-04-12T13:05:30.268Z,14.20
2023-04-12T13:07:56.831Z,14.10
2023-04-12T13:10:23.852Z,14.10
2023-04-12T13:12:50.685Z,14.20
2023-04-12T13:15:23.269Z,14.10
2023-04-12T13:17:54.474Z,14.10
2023-04-12T13:20:22.418Z,14.10
2023-04-12T13:22:50.090Z,14.20
2023-04-12T13:25:16.987Z,14.60
2023-04-12T13:27:43.672Z,15.00
2023-04-12T13:30:10.610Z,15.00
2023-04-12T13:32:37.889Z,15.20
2023-04-12T13:35:04.915Z,15.50
2023-04-12T13:37:31.628Z,15.80
2023-04-12T13:39:58.330Z,16.00
2023-04-12T13:42:25.120Z,16.00
2023-04-12T13:44:51.848Z,15.90
2023-04-12T13:47:18.560Z,15.90
2023-04-12T13:49:45.811Z,15.70
2023-04-12T13:52:13.164Z,15.60
2023-04-12T13:54:40.976Z,15.50
2023-04-12T13:57:08.019Z,15.40
2023-04-12T13:59:34.895Z,15.00
2023-04-12T14:02:01.921Z,15.00
2023-04-12T14:04:29.570Z,15.00
2023-04-12T14:06:57.069Z,15.10
2023-04-12T14:09:28.469Z,15.10
2023-04-12T14:11:57.899Z,15.00
2023-04-12T14:14:26.264Z,14.70
2023-04-12T14:16:57.057Z,14.40
2023-04-12T14:19:24.534Z,14.20
2023-04-12T14:21:51.678Z,14.00
2023-04-12T14:24:19.731Z,13.50
2023-04-12T14:26:46.549Z,13.50
2023-04-12T14:29:13.542Z,13.50
2023-04-12T14:31:40.497Z,13.30
2023-04-12T14:34:08.767Z,13.20
2023-04-12T14:36:35.846Z,13.30
2023-04-12T14:39:04.048Z,13.50
2023-04-12T14:41:31.566Z,13.80
2023-04-12T14:44:01.466Z,14.10
2023-04-12T14:46:28.490Z,14.20
2023-04-12T14:48:57.087Z,14.20
2023-04-12T14:51:24.232Z,14.10
2023-04-12T14:53:51.009Z,14.10
2023-04-12T14:56:24.562Z,14.10
2023-04-12T14:58:55.858Z,14.20
2023-04-12T15:01:23.773Z,14.20
2023-04-12T15:03:52.337Z,14.10
2023-04-12T15:06:20.877Z,14.00
2023-04-12T15:08:49.481Z,14.10
2023-04-12T15:11:18.963Z,14.00
2023-04-12T15:13:45.673Z,13.90
2023-04-12T15:16:12.490Z,13.70
2023-04-12T15:18:41.557Z,13.70
2023-04-12T15:21:10.320Z,13.60
2023-04-12T15:23:37.776Z,13.60
2023-04-12T15:26:06.627Z,13.50
2023-04-12T15:28:33.440Z,13.60
2023-04-12T15:31:01.007Z,13.60
2023-04-12T15:33:28.042Z,13.60
2023-04-12T15:35:57.930Z,13.70
2023-04-12T15:38:24.873Z,13.60
2023-04-12T15:40:56.297Z,13.60
2023-04-12T15:43:23.872Z,13.80
2023-04-12T15:45:54.409Z,13.90
2023-04-12T15:48:23.017Z,14.10
2023-04-12T15:50:51.156Z,14.20
2023-04-12T15:53:21.038Z,14.30
2023-04-12T15:55:48.422Z,14.40
2023-04-12T15:58:15.089Z,14.50
2023-04-12T16:00:42.183Z,14.20
2023-04-12T16:03:09.456Z,13.90
2023-04-12T16:05:36.539Z,13.70
2023-04-12T16:08:03.713Z,13.60
2023-04-12T16:10:30.545Z,13.40
2023-04-12T16:12:57.856Z,13.60
2023-04-12T16:15:24.614Z,13.60
2023-04-12T16:17:55.975Z,13.80
2023-04-12T16:20:23.909Z,13.90
2023-04-12T16:22:55.515Z,13.90
2023-04-12T16:25:29.650Z,13.90
2023-04-12T16:27:57.129Z,13.90
2023-04-12T16:30:24.219Z,13.90
2023-04-12T16:32:51.230Z,13.90
2023-04-12T16:35:18.090Z,13.90
2023-04-12T16:37:47.049Z,13.90
2023-04-12T16:40:14.162Z,13.90
2023-04-12T16:42:42.582Z,13.70
2023-04-12T16:45:10.703Z,13.60
2023-04-12T16:47:38.145Z,13.60
2023-04-12T16:50:08.412Z,13.60
2023-04-12T16:52:36.036Z,13.40
2023-04-12T16:55:03.491Z,13.40
2023-04-12T16:57:30.205Z,13.30
2023-04-12T16:59:57.369Z,13.30
2023-04-12T17:02:24.903Z,13.20
2023-04-12T17:04:51.857Z,13.10
2023-04-12T17:07:18.956Z,12.70
2023-04-12T17:09:45.722Z,12.60
2023-04-12T17:12:12.825Z,12.40
2023-04-12T17:14:39.536Z,12.50
2023-04-12T17:17:06.796Z,12.70
2023-04-12T17:19:33.792Z,12.60
2023-04-12T17:22:00.756Z,12.70
2023-04-12T17:24:28.932Z,12.60
2023-04-12T17:26:56.331Z,12.60
2023-04-12T17:29:23.101Z,12.70
2023-04-12T17:31:53.217Z,12.60
2023-04-12T17:34:21.884Z,12.50
2023-04-12T17:36:49.168Z,12.50
2023-04-12T17:39:16.273Z,12.40
2023-04-12T17:41:43.079Z,12.40
2023-04-12T17:44:09.737Z,12.40
2023-04-12T17:46:36.530Z,12.30
2023-04-12T17:49:05.657Z,12.20
2023-04-12T17:51:33.086Z,12.10
2023-04-12T17:54:00.726Z,12.00
2023-04-12T17:56:27.847Z,11.90
2023-04-12T17:58:55.224Z,11.80
2023-04-12T18:01:22.620Z,11.80
2023-04-12T18:03:50.016Z,11.70
2023-04-12T18:06:18.373Z,11.60
2023-04-12T18:08:45.340Z,11.60
2023-04-12T18:11:12.921Z,11.50
2023-04-12T18:13:39.610Z,11.40
2023-04-12T18:16:07.146Z,11.40
2023-04-12T18:18:34.057Z,11.30
2023-04-12T18:21:06.357Z,11.30
2023-04-12T18:23:33.016Z,11.20
2023-04-12T18:25:59.736Z,11.20
2023-04-12T18:28:26.470Z,11.20
2023-04-12T18:30:54.484Z,11.10
2023-04-12T18:33:22.810Z,11.10
2023-04-12T18:35:51.212Z,11.00
2023-04-12T18:38:18.697Z,11.00
2023-04-12T18:40:45.565Z,10.90
2023-04-12T18:43:12.252Z,10.80
2023-04-12T18:45:40.438Z,10.80
2023-04-12T18:48:08.490Z,10.60
2023-04-12T18:50:41.194Z,10.60
2023-04-12T18:53:08.009Z,10.50
2023-04-12T18:55:34.769Z,10.40
2023-04-12T18:58:01.869Z,10.40
2023-04-12T19:00:28.954Z,10.40
2023-04-12T19:02:55.725Z,10.40
2023-04-12T19:05:22.438Z,10.40
2023-04-12T19:07:49.197Z,10.40
2023-04-12T19:10:15.985Z,10.40
2023-04-12T19:12:42.698Z,10.30
2023-04-12T19:15:10.552Z,10.30
2023-04-12T19:17:38.905Z,10.20
2023-04-12T19:20:07.536Z,10.20
2023-04-12T19:22:34.230Z,10.10
2023-04-12T19:25:01.303Z,10.10
2023-04-12T19:27:28.391Z,10.10
2023-04-12T19:29:55.749Z,10.00
2023-04-12T19:32:22.434Z,10.00
2023-04-12T19:34:49.788Z,10.00
2023-04-12T19:37:17.006Z,9.90
2023-04-12T19:39:43.673Z,9.90
2023-04-12T19:42:10.500Z,9.80
2023-04-12T19:44:39.028Z,9.80
2023-04-12T19:47:07.096Z,9.70
2023-04-12T19:49:34.653Z,9.70
2023-04-12T19:52:03.271Z,9.70
2023-04-12T19:54:30.055Z,9.70
2023-04-12T19:56:57.254Z,9.60
2023-04-12T19:59:26.698Z,9.60
2023-04-12T20:01:54.822Z,9.50
2023-04-12T20:04:22.047Z,9.50
2023-04-12T20:06:53.838Z,9.40
2023-04-12T20:09:23.954Z,9.40
2023-04-12T20:11:50.700Z,9.40
2023-04-12T20:14:17.718Z,9.40
2023-04-12T20:16:45.531Z,9.30
2023-04-12T20:19:13.228Z,9.30
2023-04-12T20:21:40.233Z,9.30
2023-04-12T20:24:09.794Z,9.30
2023-04-12T20:26:36.562Z,9.30
2023-04-12T20:29:07.914Z,9.30
2023-04-12T20:31:34.762Z,9.20
2023-04-12T20:34:01.528Z,9.30
2023-04-12T20:36:29.476Z,9.30
2023-04-12T20:38:56.376Z,9.20
2023-04-12T20:41:24.276Z,9.20
2023-04-12T20:43:50.946Z,9.30
2023-04-12T20:46:20.582Z,9.30
2023-04-12T20:48:49.859Z,9.30
2023-04-12T20:51:18.498Z,9.30
2023-04-12T20:53:47.914Z,9.30
2023-04-12T20:56:16.950Z,9.30
2023-04-12T20:58:44.343Z,9.30
2023-04-12T21:01:14.960Z,9.30
2023-04-12T21:03:42.581Z,9.20
2023-04-12T21:06:10.640Z,9.20
2023-04-12T21:08:39.026Z,9.20
2023-04-12T21:11:06.021Z,9.20
2023-04-12T21:13:34.246Z,9.10
2023-04-12T21:16:02.732Z,9.10
2023-04-12T21:18:32.161Z,9.20
2023-04-12T21:20:59.750Z,9.10
2023-04-12T21:23:27.826Z,9.10
2023-04-12T21:25:54.677Z,9.10
2023-04-12T21:28:22.769Z,9.10
2023-04-12T21:30:54.617Z,9.10
2023-04-12T21:33:26.227Z,9.10
2023-04-12T21:35:54.351Z,9.10
2023-04-12T21:38:22.833Z,9.20
2023-04-12T21:40:49.631Z,9.10
2023-04-12T21:43:16.482Z,9.10
2023-04-12T21:45:43.615Z,9.10
2023-04-12T21:48:10.326Z,9.10
2023-04-12T21:50:38.032Z,9.10
2023-04-12T21:53:04.651Z,9.00
2023-04-12T21:55:31.324Z,9.00
2023-04-12T21:57:57.924Z,9.00
2023-04-12T22:00:27.070Z,9.00
2023-04-12T22:02:53.897Z,9.10
2023-04-12T22:05:20.887Z,9.10
2023-04-12T22:07:47.649Z,9.10
2023-04-12T22:10:14.759Z,9.10
2023-04-12T22:12:42.340Z,9.20
2023-04-12T22:15:11.473Z,9.10
2023-04-12T22:17:38.769Z,9.10
2023-04-12T22:20:08.378Z,9.10
2023-04-12T22:22:37.167Z,9.10
2023-04-12T22:25:04.995Z,8.90
2023-04-12T22:27:31.694Z,8.90
2023-04-12T22:30:00.615Z,8.80
2023-04-12T22:32:27.509Z,8.70
2023-04-12T22:35:05.275Z,8.70
2023-04-12T22:37:35.649Z,8.80
2023-04-12T22:40:02.552Z,8.70
2023-04-12T22:42:29.971Z,8.60
2023-04-12T22:45:00.560Z,8.50
2023-04-12T22:47:28.101Z,8.50
2023-04-12T22:50:00.895Z,8.50
2023-04-12T22:52:30.432Z,8.30
2023-04-12T22:54:57.204Z,8.30
2023-04-12T22:57:23.931Z,8.20
2023-04-12T22:59:52.106Z,8.20
2023-04-12T23:02:18.797Z,8.10
2023-04-12T23:04:48.829Z,8.00
2023-04-12T23:07:15.862Z,8.00
2023-04-12T23:09:42.708Z,8.10
2023-04-12T23:12:09.368Z,8.00
2023-04-12T23:14:37.666Z,8.00
2023-04-12T23:17:04.302Z,8.00
2023-04-12T23:19:30.933Z,8.10
2023-04-12T23:21:57.583Z,8.10
2023-04-12T23:24:25.016Z,8.10
2023-04-12T23:26:51.700Z,8.10
2023-04-12T23:29:18.332Z,8.10
2023-04-12T23:31:45.664Z,8.00
2023-04-12T23:34:13.330Z,8.00
2023-04-12T23:36:40.062Z,8.00
2023-04-12T23:39:09.202Z,7.90
2023-04-12T23:41:36.122Z,7.90
2023-04-12T23:44:02.864Z,8.00
2023-04-12T23:46:29.749Z,7.90
2023-04-12T23:48:56.669Z,8.00
2023-04-12T23:51:23.332Z,8.10
2023-04-12T23:53:50.187Z,8.10
2023-04-12T23:56:17.036Z,8.10
2023-04-12T23:58:43.888Z,8.10
